sensor_id;sensor_type;location;lat;lon;timestamp;pressure;altitude;pressure_sealevel;temperature
34807;BMP280;18310;55.586;12.286;2023-11-19T00:02:56;101464.88;;;11.89
34807;BMP280;18310;55.586;12.286;2023-11-19T00:06:04;101458.59;;;11.88
34807;BMP280;18310;55.586;12.286;2023-11-19T00:09:10;101450.09;;;11.90
34807;BMP280;18310;55.586;12.286;2023-11-19T00:12:17;101437.94;;;11.87
34807;BMP280;18310;55.586;12.286;2023-11-19T00:15:22;101439.88;;;11.87
34807;BMP280;18310;55.586;12.286;2023-11-19T00:18:26;101431.69;;;11.87
34807;BMP280;18310;55.586;12.286;2023-11-19T00:21:30;101417.69;;;11.76
34807;BMP280;18310;55.586;12.286;2023-11-19T00:24:39;101394.09;;;11.80
34807;BMP280;18310;55.586;12.286;2023-11-19T00:27:47;101378.97;;;11.83
34807;BMP280;18310;55.586;12.286;2023-11-19T00:30:52;101381.25;;;11.81
34807;BMP280;18310;55.586;12.286;2023-11-19T00:33:58;101366.66;;;11.77
34807;BMP280;18310;55.586;12.286;2023-11-19T00:37:05;101355.69;;;11.73
34807;BMP280;18310;55.586;12.286;2023-11-19T00:40:13;101343.63;;;11.74
34807;BMP280;18310;55.586;12.286;2023-11-19T00:43:23;101336.25;;;11.75
34807;BMP280;18310;55.586;12.286;2023-11-19T00:46:29;101335.44;;;11.74
34807;BMP280;18310;55.586;12.286;2023-11-19T00:49:35;101323.72;;;11.74
34807;BMP280;18310;55.586;12.286;2023-11-19T00:52:41;101319.19;;;11.78
34807;BMP280;18310;55.586;12.286;2023-11-19T00:55:46;101294.63;;;11.78
34807;BMP280;18310;55.586;12.286;2023-11-19T00:58:51;101283.19;;;11.72
34807;BMP280;18310;55.586;12.286;2023-11-19T01:02:15;101262.72;;;11.78
34807;BMP280;18310;55.586;12.286;2023-11-19T01:05:20;101268.50;;;11.77
34807;BMP280;18310;55.586;12.286;2023-11-19T01:08:27;101250.19;;;11.77
34807;BMP280;18310;55.586;12.286;2023-11-19T01:11:30;101272.34;;;11.76
34807;BMP280;18310;55.586;12.286;2023-11-19T01:14:34;101281.09;;;11.81
34807;BMP280;18310;55.586;12.286;2023-11-19T01:17:42;101264.16;;;11.76
34807;BMP280;18310;55.586;12.286;2023-11-19T01:20:52;101245.06;;;11.76
34807;BMP280;18310;55.586;12.286;2023-11-19T01:24:00;101217.59;;;11.81
34807;BMP280;18310;55.586;12.286;2023-11-19T01:27:08;101217.47;;;11.77
34807;BMP280;18310;55.586;12.286;2023-11-19T01:30:13;101221.09;;;11.81
34807;BMP280;18310;55.586;12.286;2023-11-19T01:33:20;101207.25;;;11.86
34807;BMP280;18310;55.586;12.286;2023-11-19T01:36:25;101205.72;;;11.89
34807;BMP280;18310;55.586;12.286;2023-11-19T01:39:31;101196.41;;;11.90
34807;BMP280;18310;55.586;12.286;2023-11-19T01:42:36;101188.34;;;11.93
34807;BMP280;18310;55.586;12.286;2023-11-19T01:46:23;101173.91;;;11.93
34807;BMP280;18310;55.586;12.286;2023-11-19T01:49:30;101169.44;;;12.00
34807;BMP280;18310;55.586;12.286;2023-11-19T01:52:35;101170.25;;;12.01
34807;BMP280;18310;55.586;12.286;2023-11-19T01:55:41;101143.38;;;12.03
34807;BMP280;18310;55.586;12.286;2023-11-19T01:58:46;101149.31;;;12.05
34807;BMP280;18310;55.586;12.286;2023-11-19T02:01:53;101144.31;;;12.07
34807;BMP280;18310;55.586;12.286;2023-11-19T02:05:03;101145.97;;;12.11
34807;BMP280;18310;55.586;12.286;2023-11-19T02:08:08;101138.13;;;12.10
34807;BMP280;18310;55.586;12.286;2023-11-19T02:11:17;101137.78;;;12.11
34807;BMP280;18310;55.586;12.286;2023-11-19T02:14:27;101124.94;;;12.12
34807;BMP280;18310;55.586;12.286;2023-11-19T02:17:39;101108.50;;;12.08
34807;BMP280;18310;55.586;12.286;2023-11-19T02:20:49;101103.38;;;12.07
34807;BMP280;18310;55.586;12.286;2023-11-19T02:23:53;101097.19;;;12.10
34807;BMP280;18310;55.586;12.286;2023-11-19T02:27:15;101085.13;;;12.11
34807;BMP280;18310;55.586;12.286;2023-11-19T02:30:22;101080.81;;;12.10
34807;BMP280;18310;55.586;12.286;2023-11-19T02:33:29;101058.81;;;12.03
34807;BMP280;18310;55.586;12.286;2023-11-19T02:36:34;101061.72;;;12.10
34807;BMP280;18310;55.586;12.286;2023-11-19T02:39:39;101057.84;;;12.11
34807;BMP280;18310;55.586;12.286;2023-11-19T02:42:51;101041.75;;;12.06
34807;BMP280;18310;55.586;12.286;2023-11-19T02:45:57;101043.41;;;12.10
34807;BMP280;18310;55.586;12.286;2023-11-19T02:49:02;101036.03;;;12.11
34807;BMP280;18310;55.586;12.286;2023-11-19T02:52:06;101017.81;;;11.99
34807;BMP280;18310;55.586;12.286;2023-11-19T02:55:14;101016.41;;;12.05
34807;BMP280;18310;55.586;12.286;2023-11-19T02:58:19;101017.22;;;12.06
34807;BMP280;18310;55.586;12.286;2023-11-19T03:01:29;101008.91;;;12.02
34807;BMP280;18310;55.586;12.286;2023-11-19T03:04:36;101002.56;;;11.98
34807;BMP280;18310;55.586;12.286;2023-11-19T03:07:44;100980.06;;;12.01
34807;BMP280;18310;55.586;12.286;2023-11-19T03:10:49;100974.53;;;11.98
34807;BMP280;18310;55.586;12.286;2023-11-19T03:13:56;100974.06;;;11.96
34807;BMP280;18310;55.586;12.286;2023-11-19T03:17:03;100961.59;;;11.95
34807;BMP280;18310;55.586;12.286;2023-11-19T03:20:10;100947.59;;;11.96
34807;BMP280;18310;55.586;12.286;2023-11-19T03:23:18;100946.00;;;11.95
34807;BMP280;18310;55.586;12.286;2023-11-19T03:26:23;100933.16;;;11.96
34807;BMP280;18310;55.586;12.286;2023-11-19T03:29:27;100940.94;;;11.94
34807;BMP280;18310;55.586;12.286;2023-11-19T03:32:33;100935.34;;;11.90
34807;BMP280;18310;55.586;12.286;2023-11-19T03:35:38;100932.28;;;11.92
34807;BMP280;18310;55.586;12.286;2023-11-19T03:38:43;100928.44;;;11.93
34807;BMP280;18310;55.586;12.286;2023-11-19T03:41:47;100914.88;;;11.81
34807;BMP280;18310;55.586;12.286;2023-11-19T03:44:52;100907.25;;;11.86
34807;BMP280;18310;55.586;12.286;2023-11-19T03:47:59;100889.34;;;11.89
34807;BMP280;18310;55.586;12.286;2023-11-19T03:51:03;100892.44;;;11.87
34807;BMP280;18310;55.586;12.286;2023-11-19T03:54:07;100879.50;;;11.84
34807;BMP280;18310;55.586;12.286;2023-11-19T03:57:11;100869.41;;;11.69
34807;BMP280;18310;55.586;12.286;2023-11-19T04:00:17;100863.69;;;11.74
34807;BMP280;18310;55.586;12.286;2023-11-19T04:03:25;100862.13;;;11.73
34807;BMP280;18310;55.586;12.286;2023-11-19T04:06:30;100858.94;;;11.71
34807;BMP280;18310;55.586;12.286;2023-11-19T04:09:35;100854.63;;;11.70
34807;BMP280;18310;55.586;12.286;2023-11-19T04:12:40;100842.25;;;11.73
34807;BMP280;18310;55.586;12.286;2023-11-19T04:15:45;100845.66;;;11.69
34807;BMP280;18310;55.586;12.286;2023-11-19T04:18:50;100844.34;;;11.63
34807;BMP280;18310;55.586;12.286;2023-11-19T04:21:54;100833.59;;;11.55
34807;BMP280;18310;55.586;12.286;2023-11-19T04:24:58;100835.72;;;11.61
34807;BMP280;18310;55.586;12.286;2023-11-19T04:28:02;100820.31;;;11.53
34807;BMP280;18310;55.586;12.286;2023-11-19T04:31:07;100807.41;;;11.66
34807;BMP280;18310;55.586;12.286;2023-11-19T04:34:13;100800.00;;;11.66
34807;BMP280;18310;55.586;12.286;2023-11-19T04:37:17;100809.75;;;11.67
34807;BMP280;18310;55.586;12.286;2023-11-19T04:40:21;100799.31;;;11.69
34807;BMP280;18310;55.586;12.286;2023-11-19T04:43:26;100773.69;;;11.74
34807;BMP280;18310;55.586;12.286;2023-11-19T04:46:30;100767.13;;;11.75
34807;BMP280;18310;55.586;12.286;2023-11-19T04:49:39;100765.34;;;11.67
34807;BMP280;18310;55.586;12.286;2023-11-19T04:52:52;100752.97;;;11.69
34807;BMP280;18310;55.586;12.286;2023-11-19T04:56:08;100747.50;;;11.69
34807;BMP280;18310;55.586;12.286;2023-11-19T04:59:14;100751.47;;;11.72
34807;BMP280;18310;55.586;12.286;2023-11-19T05:02:19;100730.44;;;11.73
34807;BMP280;18310;55.586;12.286;2023-11-19T05:05:25;100724.22;;;11.72
34807;BMP280;18310;55.586;12.286;2023-11-19T05:08:31;100729.66;;;11.72
34807;BMP280;18310;55.586;12.286;2023-11-19T05:11:36;100725.41;;;11.75
34807;BMP280;18310;55.586;12.286;2023-11-19T05:14:54;100700.09;;;11.74
34807;BMP280;18310;55.586;12.286;2023-11-19T05:18:00;100709.34;;;11.69
34807;BMP280;18310;55.586;12.286;2023-11-19T05:21:07;100696.97;;;11.76
34807;BMP280;18310;55.586;12.286;2023-11-19T05:24:12;100688.31;;;11.70
34807;BMP280;18310;55.586;12.286;2023-11-19T05:27:17;100699.22;;;11.70
34807;BMP280;18310;55.586;12.286;2023-11-19T05:30:22;100681.28;;;11.69
34807;BMP280;18310;55.586;12.286;2023-11-19T05:33:27;100683.06;;;11.61
34807;BMP280;18310;55.586;12.286;2023-11-19T05:36:35;100674.91;;;11.61
34807;BMP280;18310;55.586;12.286;2023-11-19T05:39:39;100660.03;;;11.59
34807;BMP280;18310;55.586;12.286;2023-11-19T05:42:44;100667.00;;;11.56
34807;BMP280;18310;55.586;12.286;2023-11-19T05:45:49;100670.78;;;11.52
34807;BMP280;18310;55.586;12.286;2023-11-19T05:48:53;100668.94;;;11.56
34807;BMP280;18310;55.586;12.286;2023-11-19T05:51:59;100682.22;;;11.57
34807;BMP280;18310;55.586;12.286;2023-11-19T05:55:06;100661.09;;;11.54
34807;BMP280;18310;55.586;12.286;2023-11-19T05:58:13;100650.97;;;11.55
34807;BMP280;18310;55.586;12.286;2023-11-19T06:01:17;100645.97;;;11.57
34807;BMP280;18310;55.586;12.286;2023-11-19T06:04:22;100630.97;;;11.47
34807;BMP280;18310;55.586;12.286;2023-11-19T06:07:29;100633.41;;;11.52
34807;BMP280;18310;55.586;12.286;2023-11-19T06:10:33;100628.03;;;11.56
34807;BMP280;18310;55.586;12.286;2023-11-19T06:13:43;100630.03;;;11.59
34807;BMP280;18310;55.586;12.286;2023-11-19T06:16:49;100607.03;;;11.56
34807;BMP280;18310;55.586;12.286;2023-11-19T06:19:55;100604.66;;;11.55
34807;BMP280;18310;55.586;12.286;2023-11-19T06:23:01;100606.44;;;11.47
34807;BMP280;18310;55.586;12.286;2023-11-19T06:26:07;100613.31;;;11.41
34807;BMP280;18310;55.586;12.286;2023-11-19T06:29:11;100607.28;;;11.32
34807;BMP280;18310;55.586;12.286;2023-11-19T06:32:21;100604.56;;;11.32
34807;BMP280;18310;55.586;12.286;2023-11-19T06:35:25;100599.59;;;11.18
34807;BMP280;18310;55.586;12.286;2023-11-19T06:38:30;100586.41;;;11.20
34807;BMP280;18310;55.586;12.286;2023-11-19T06:41:34;100607.75;;;11.18
34807;BMP280;18310;55.586;12.286;2023-11-19T06:44:41;100590.63;;;11.18
34807;BMP280;18310;55.586;12.286;2023-11-19T06:47:53;100584.41;;;11.17
34807;BMP280;18310;55.586;12.286;2023-11-19T06:50:56;100571.69;;;11.06
34807;BMP280;18310;55.586;12.286;2023-11-19T06:54:02;100549.47;;;11.04
34807;BMP280;18310;55.586;12.286;2023-11-19T06:57:08;100566.25;;;11.06
34807;BMP280;18310;55.586;12.286;2023-11-19T07:00:36;100562.19;;;11.00
34807;BMP280;18310;55.586;12.286;2023-11-19T07:03:41;100545.41;;;10.98
34807;BMP280;18310;55.586;12.286;2023-11-19T07:06:45;100537.91;;;10.91
34807;BMP280;18310;55.586;12.286;2023-11-19T07:09:50;100529.03;;;10.94
34807;BMP280;18310;55.586;12.286;2023-11-19T07:12:54;100531.81;;;10.98
34807;BMP280;18310;55.586;12.286;2023-11-19T07:16:00;100541.00;;;10.90
34807;BMP280;18310;55.586;12.286;2023-11-19T07:19:04;100492.06;;;10.93
34807;BMP280;18310;55.586;12.286;2023-11-19T07:22:09;100522.44;;;10.95
34807;BMP280;18310;55.586;12.286;2023-11-19T07:25:15;100510.81;;;10.98
34807;BMP280;18310;55.586;12.286;2023-11-19T07:28:20;100514.13;;;11.07
34807;BMP280;18310;55.586;12.286;2023-11-19T07:31:28;100511.34;;;11.04
34807;BMP280;18310;55.586;12.286;2023-11-19T07:34:32;100506.31;;;11.06
34807;BMP280;18310;55.586;12.286;2023-11-19T07:37:36;100513.78;;;11.09
34807;BMP280;18310;55.586;12.286;2023-11-19T07:40:42;100507.63;;;11.12
34807;BMP280;18310;55.586;12.286;2023-11-19T07:43:59;100499.53;;;11.15
34807;BMP280;18310;55.586;12.286;2023-11-19T07:47:05;100513.16;;;11.15
34807;BMP280;18310;55.586;12.286;2023-11-19T07:50:11;100481.59;;;11.14
34807;BMP280;18310;55.586;12.286;2023-11-19T07:53:20;100508.16;;;11.17
34807;BMP280;18310;55.586;12.286;2023-11-19T07:56:24;100504.63;;;11.17
34807;BMP280;18310;55.586;12.286;2023-11-19T07:59:30;100505.03;;;11.19
34807;BMP280;18310;55.586;12.286;2023-11-19T08:02:39;100496.16;;;11.22
34807;BMP280;18310;55.586;12.286;2023-11-19T08:05:44;100504.31;;;11.22
34807;BMP280;18310;55.586;12.286;2023-11-19T08:08:50;100508.97;;;11.21
34807;BMP280;18310;55.586;12.286;2023-11-19T08:11:54;100521.84;;;11.21
34807;BMP280;18310;55.586;12.286;2023-11-19T08:14:59;100518.03;;;11.26
34807;BMP280;18310;55.586;12.286;2023-11-19T08:18:07;100515.22;;;11.22
34807;BMP280;18310;55.586;12.286;2023-11-19T08:21:12;100515.16;;;11.18
34807;BMP280;18310;55.586;12.286;2023-11-19T08:24:17;100499.88;;;11.14
34807;BMP280;18310;55.586;12.286;2023-11-19T08:27:26;100494.53;;;11.17
34807;BMP280;18310;55.586;12.286;2023-11-19T08:30:30;100502.31;;;11.19
34807;BMP280;18310;55.586;12.286;2023-11-19T08:33:37;100478.25;;;11.21
34807;BMP280;18310;55.586;12.286;2023-11-19T08:36:43;100501.13;;;11.16
34807;BMP280;18310;55.586;12.286;2023-11-19T08:39:56;100489.78;;;11.14
34807;BMP280;18310;55.586;12.286;2023-11-19T08:43:01;100468.78;;;11.15
34807;BMP280;18310;55.586;12.286;2023-11-19T08:46:09;100464.47;;;11.14
34807;BMP280;18310;55.586;12.286;2023-11-19T08:49:16;100473.38;;;11.11
34807;BMP280;18310;55.586;12.286;2023-11-19T08:52:21;100458.59;;;11.12
34807;BMP280;18310;55.586;12.286;2023-11-19T08:55:26;100457.38;;;11.09
34807;BMP280;18310;55.586;12.286;2023-11-19T09:00:44;100458.94;;;11.10
34807;BMP280;18310;55.586;12.286;2023-11-19T09:03:49;100465.19;;;11.11
34807;BMP280;18310;55.586;12.286;2023-11-19T09:06:53;100454.31;;;11.11
34807;BMP280;18310;55.586;12.286;2023-11-19T09:09:57;100447.50;;;11.01
34807;BMP280;18310;55.586;12.286;2023-11-19T09:13:02;100437.47;;;11.05
34807;BMP280;18310;55.586;12.286;2023-11-19T09:16:08;100435.13;;;11.07
34807;BMP280;18310;55.586;12.286;2023-11-19T09:19:12;100441.38;;;11.08
34807;BMP280;18310;55.586;12.286;2023-11-19T09:22:17;100457.31;;;11.06
34807;BMP280;18310;55.586;12.286;2023-11-19T09:25:22;100437.03;;;11.03
34807;BMP280;18310;55.586;12.286;2023-11-19T09:28:28;100428.91;;;11.07
34807;BMP280;18310;55.586;12.286;2023-11-19T09:31:38;100425.38;;;11.06
34807;BMP280;18310;55.586;12.286;2023-11-19T09:34:45;100416.84;;;11.04
34807;BMP280;18310;55.586;12.286;2023-11-19T09:37:55;100431.59;;;11.03
34807;BMP280;18310;55.586;12.286;2023-11-19T09:41:04;100434.66;;;11.02
34807;BMP280;18310;55.586;12.286;2023-11-19T09:44:13;100429.50;;;10.97
34807;BMP280;18310;55.586;12.286;2023-11-19T09:47:22;100425.91;;;10.93
34807;BMP280;18310;55.586;12.286;2023-11-19T09:50:47;100415.75;;;10.90
34807;BMP280;18310;55.586;12.286;2023-11-19T09:53:51;100406.88;;;10.93
34807;BMP280;18310;55.586;12.286;2023-11-19T09:56:59;100411.88;;;10.91
34807;BMP280;18310;55.586;12.286;2023-11-19T10:00:08;100404.44;;;10.88
34807;BMP280;18310;55.586;12.286;2023-11-19T10:03:16;100405.09;;;10.81
34807;BMP280;18310;55.586;12.286;2023-11-19T10:06:52;100403.19;;;10.85
34807;BMP280;18310;55.586;12.286;2023-11-19T10:09:57;100400.06;;;10.83
34807;BMP280;18310;55.586;12.286;2023-11-19T10:13:01;100396.13;;;10.81
34807;BMP280;18310;55.586;12.286;2023-11-19T10:16:07;100388.56;;;10.74
34807;BMP280;18310;55.586;12.286;2023-11-19T10:22:14;100386.38;;;10.79
34807;BMP280;18310;55.586;12.286;2023-11-19T10:25:22;100373.59;;;10.84
34807;BMP280;18310;55.586;12.286;2023-11-19T10:32:44;100369.03;;;10.88
34807;BMP280;18310;55.586;12.286;2023-11-19T10:37:08;100370.69;;;10.92
34807;BMP280;18310;55.586;12.286;2023-11-19T10:43:08;100362.97;;;10.98
34807;BMP280;18310;55.586;12.286;2023-11-19T10:46:13;100378.63;;;11.01
34807;BMP280;18310;55.586;12.286;2023-11-19T10:49:22;100356.53;;;11.06
34807;BMP280;18310;55.586;12.286;2023-11-19T10:52:27;100350.47;;;11.12
34807;BMP280;18310;55.586;12.286;2023-11-19T10:55:31;100343.50;;;11.15
34807;BMP280;18310;55.586;12.286;2023-11-19T10:58:36;100349.00;;;11.18
34807;BMP280;18310;55.586;12.286;2023-11-19T11:01:44;100345.91;;;11.20
34807;BMP280;18310;55.586;12.286;2023-11-19T11:04:49;100340.09;;;11.21
34807;BMP280;18310;55.586;12.286;2023-11-19T11:07:55;100352.16;;;11.20
34807;BMP280;18310;55.586;12.286;2023-11-19T11:10:59;100350.22;;;11.21
34807;BMP280;18310;55.586;12.286;2023-11-19T11:14:05;100348.63;;;11.20
34807;BMP280;18310;55.586;12.286;2023-11-19T11:17:09;100350.22;;;11.21
34807;BMP280;18310;55.586;12.286;2023-11-19T11:20:14;100347.91;;;11.23
34807;BMP280;18310;55.586;12.286;2023-11-19T11:23:34;100347.22;;;11.30
34807;BMP280;18310;55.586;12.286;2023-11-19T11:26:53;100334.81;;;11.29
34807;BMP280;18310;55.586;12.286;2023-11-19T11:30:11;100337.53;;;11.29
34807;BMP280;18310;55.586;12.286;2023-11-19T11:33:30;100339.50;;;11.32
34807;BMP280;18310;55.586;12.286;2023-11-19T11:36:44;100339.16;;;11.33
34807;BMP280;18310;55.586;12.286;2023-11-19T11:39:51;100345.03;;;11.35
34807;BMP280;18310;55.586;12.286;2023-11-19T11:42:55;100332.94;;;11.36
34807;BMP280;18310;55.586;12.286;2023-11-19T11:46:00;100327.94;;;11.38
34807;BMP280;18310;55.586;12.286;2023-11-19T11:49:06;100325.66;;;11.40
34807;BMP280;18310;55.586;12.286;2023-11-19T11:52:09;100327.59;;;11.40
34807;BMP280;18310;55.586;12.286;2023-11-19T11:55:16;100313.22;;;11.43
34807;BMP280;18310;55.586;12.286;2023-11-19T11:58:19;100310.06;;;11.41
34807;BMP280;18310;55.586;12.286;2023-11-19T12:01:25;100305.06;;;11.43
34807;BMP280;18310;55.586;12.286;2023-11-19T12:04:30;100312.44;;;11.42
34807;BMP280;18310;55.586;12.286;2023-11-19T12:07:34;100302.31;;;11.43
34807;BMP280;18310;55.586;12.286;2023-11-19T12:10:44;100274.47;;;11.30
34807;BMP280;18310;55.586;12.286;2023-11-19T12:13:54;100301.94;;;11.44
34807;BMP280;18310;55.586;12.286;2023-11-19T12:17:36;100293.78;;;11.44
34807;BMP280;18310;55.586;12.286;2023-11-19T12:20:40;100302.31;;;11.43
34807;BMP280;18310;55.586;12.286;2023-11-19T12:23:46;100313.19;;;11.39
34807;BMP280;18310;55.586;12.286;2023-11-19T12:26:52;100293.63;;;11.34
34807;BMP280;18310;55.586;12.286;2023-11-19T12:29:56;100305.41;;;11.41
34807;BMP280;18310;55.586;12.286;2023-11-19T12:33:07;100292.53;;;11.38
34807;BMP280;18310;55.586;12.286;2023-11-19T12:36:11;100294.81;;;11.36
34807;BMP280;18310;55.586;12.286;2023-11-19T12:39:14;100288.09;;;11.30
34807;BMP280;18310;55.586;12.286;2023-11-19T12:42:17;100304.41;;;11.27
34807;BMP280;18310;55.586;12.286;2023-11-19T12:45:21;100285.94;;;11.16
34807;BMP280;18310;55.586;12.286;2023-11-19T12:48:27;100295.59;;;11.14
34807;BMP280;18310;55.586;12.286;2023-11-19T12:51:31;100286.59;;;11.10
34807;BMP280;18310;55.586;12.286;2023-11-19T12:54:35;100304.81;;;11.06
34807;BMP280;18310;55.586;12.286;2023-11-19T12:57:39;100285.34;;;11.04
34807;BMP280;18310;55.586;12.286;2023-11-19T13:00:43;100286.03;;;11.01
34807;BMP280;18310;55.586;12.286;2023-11-19T13:03:48;100274.13;;;11.09
34807;BMP280;18310;55.586;12.286;2023-11-19T13:06:53;100281.03;;;11.03
34807;BMP280;18310;55.586;12.286;2023-11-19T13:10:01;100299.50;;;11.13
34807;BMP280;18310;55.586;12.286;2023-11-19T13:13:06;100295.19;;;11.12
34807;BMP280;18310;55.586;12.286;2023-11-19T13:16:10;100294.06;;;11.13
34807;BMP280;18310;55.586;12.286;2023-11-19T13:19:15;100297.97;;;11.15
34807;BMP280;18310;55.586;12.286;2023-11-19T13:22:21;100282.00;;;11.14
34807;BMP280;18310;55.586;12.286;2023-11-19T13:25:24;100285.94;;;11.16
34807;BMP280;18310;55.586;12.286;2023-11-19T13:28:27;100287.56;;;11.21
34807;BMP280;18310;55.586;12.286;2023-11-19T13:31:31;100280.94;;;11.22
34807;BMP280;18310;55.586;12.286;2023-11-19T13:34:36;100275.94;;;11.24
34807;BMP280;18310;55.586;12.286;2023-11-19T13:37:39;100275.94;;;11.24
34807;BMP280;18310;55.586;12.286;2023-11-19T13:40:42;100264.25;;;11.23
34807;BMP280;18310;55.586;12.286;2023-11-19T13:43:45;100264.56;;;11.18
34807;BMP280;18310;55.586;12.286;2023-11-19T13:46:49;100279.53;;;11.28
34807;BMP280;18310;55.586;12.286;2023-11-19T13:49:53;100283.06;;;11.29
34807;BMP280;18310;55.586;12.286;2023-11-19T13:52:56;100280.25;;;11.25
34807;BMP280;18310;55.586;12.286;2023-11-19T13:56:00;100273.22;;;11.24
34807;BMP280;18310;55.586;12.286;2023-11-19T13:59:03;100271.75;;;11.30
34807;BMP280;18310;55.586;12.286;2023-11-19T14:02:06;100274.78;;;11.25
34807;BMP280;18310;55.586;12.286;2023-11-19T14:05:11;100273.66;;;11.26
34807;BMP280;18310;55.586;12.286;2023-11-19T14:08:14;100267.34;;;11.22
34807;BMP280;18310;55.586;12.286;2023-11-19T14:11:26;100266.53;;;11.21
34807;BMP280;18310;55.586;12.286;2023-11-19T14:14:30;100256.03;;;11.20
34807;BMP280;18310;55.586;12.286;2023-11-19T14:17:33;100256.81;;;11.20
34807;BMP280;18310;55.586;12.286;2023-11-19T14:20:38;100270.00;;;11.18
34807;BMP280;18310;55.586;12.286;2023-11-19T14:23:41;100272.72;;;11.18
34807;BMP280;18310;55.586;12.286;2023-11-19T14:26:45;100280.78;;;11.11
34807;BMP280;18310;55.586;12.286;2023-11-19T14:29:48;100289.22;;;11.06
34807;BMP280;18310;55.586;12.286;2023-11-19T14:32:52;100288.84;;;11.04
34807;BMP280;18310;55.586;12.286;2023-11-19T14:35:57;100290.00;;;11.07
34807;BMP280;18310;55.586;12.286;2023-11-19T14:39:01;100293.91;;;11.06
34807;BMP280;18310;55.586;12.286;2023-11-19T14:42:05;100291.94;;;11.06
34807;BMP280;18310;55.586;12.286;2023-11-19T14:45:10;100303.28;;;11.08
34807;BMP280;18310;55.586;12.286;2023-11-19T14:48:14;100304.06;;;11.09
34807;BMP280;18310;55.586;12.286;2023-11-19T14:51:19;100314.31;;;11.15
34807;BMP280;18310;55.586;12.286;2023-11-19T14:54:22;100301.50;;;11.16
34807;BMP280;18310;55.586;12.286;2023-11-19T14:57:26;100303.72;;;11.10
34807;BMP280;18310;55.586;12.286;2023-11-19T15:00:30;100306.16;;;11.15
34807;BMP280;18310;55.586;12.286;2023-11-19T15:03:33;100304.22;;;11.16
34807;BMP280;18310;55.586;12.286;2023-11-19T15:06:58;100305.72;;;11.13
34807;BMP280;18310;55.586;12.286;2023-11-19T15:10:14;100300.66;;;11.12
34807;BMP280;18310;55.586;12.286;2023-11-19T15:13:17;100306.44;;;11.10
34807;BMP280;18310;55.586;12.286;2023-11-19T15:16:21;100317.34;;;11.10
34807;BMP280;18310;55.586;12.286;2023-11-19T15:19:32;100316.59;;;11.13
34807;BMP280;18310;55.586;12.286;2023-11-19T15:22:36;100319.41;;;11.17
34807;BMP280;18310;55.586;12.286;2023-11-19T15:25:41;100299.41;;;11.09
34807;BMP280;18310;55.586;12.286;2023-11-19T15:28:44;100329.88;;;11.15
34807;BMP280;18310;55.586;12.286;2023-11-19T15:31:47;100318.19;;;11.14
34807;BMP280;18310;55.586;12.286;2023-11-19T15:34:50;100311.41;;;11.05
34807;BMP280;18310;55.586;12.286;2023-11-19T15:37:54;100320.41;;;11.09
34807;BMP280;18310;55.586;12.286;2023-11-19T15:41:00;100325.41;;;11.07
34807;BMP280;18310;55.586;12.286;2023-11-19T15:44:04;100316.09;;;11.08
34807;BMP280;18310;55.586;12.286;2023-11-19T15:47:08;100320.28;;;11.02
34807;BMP280;18310;55.586;12.286;2023-11-19T15:50:15;100331.28;;;11.05
34807;BMP280;18310;55.586;12.286;2023-11-19T15:53:19;100340.22;;;11.06
34807;BMP280;18310;55.586;12.286;2023-11-19T15:56:23;100331.28;;;11.05
34807;BMP280;18310;55.586;12.286;2023-11-19T15:59:27;100325.03;;;11.05
34807;BMP280;18310;55.586;12.286;2023-11-19T16:02:30;100332.09;;;11.09
34807;BMP280;18310;55.586;12.286;2023-11-19T16:05:34;100314.84;;;11.02
34807;BMP280;18310;55.586;12.286;2023-11-19T16:08:37;100330.50;;;11.05
34807;BMP280;18310;55.586;12.286;2023-11-19T16:11:43;100327.34;;;11.06
34807;BMP280;18310;55.586;12.286;2023-11-19T16:14:57;100334.34;;;11.04
34807;BMP280;18310;55.586;12.286;2023-11-19T16:18:01;100332.03;;;11.06
34807;BMP280;18310;55.586;12.286;2023-11-19T16:21:05;100348.44;;;11.09
34807;BMP280;18310;55.586;12.286;2023-11-19T16:24:08;100330.88;;;11.07
34807;BMP280;18310;55.586;12.286;2023-11-19T16:27:13;100334.75;;;11.06
34807;BMP280;18310;55.586;12.286;2023-11-19T16:30:20;100332.88;;;11.10
34807;BMP280;18310;55.586;12.286;2023-11-19T16:33:24;100331.63;;;11.04
34807;BMP280;18310;55.586;12.286;2023-11-19T16:36:32;100336.72;;;11.05
34807;BMP280;18310;55.586;12.286;2023-11-19T16:39:35;100341.72;;;11.03
34807;BMP280;18310;55.586;12.286;2023-11-19T16:42:39;100349.09;;;11.03
34807;BMP280;18310;55.586;12.286;2023-11-19T16:45:43;100342.09;;;11.02
34807;BMP280;18310;55.586;12.286;2023-11-19T16:48:47;100345.59;;;11.02
34807;BMP280;18310;55.586;12.286;2023-11-19T16:51:51;100345.94;;;11.01
34807;BMP280;18310;55.586;12.286;2023-11-19T16:54:54;100347.81;;;10.97
34807;BMP280;18310;55.586;12.286;2023-11-19T16:57:59;100327.19;;;10.96
34807;BMP280;18310;55.586;12.286;2023-11-19T17:01:04;100343.16;;;10.97
34807;BMP280;18310;55.586;12.286;2023-11-19T17:04:08;100345.81;;;10.94
34807;BMP280;18310;55.586;12.286;2023-11-19T17:07:11;100355.47;;;10.91
34807;BMP280;18310;55.586;12.286;2023-11-19T17:10:15;100352.41;;;10.93
34807;BMP280;18310;55.586;12.286;2023-11-19T17:13:19;100358.22;;;10.91
34807;BMP280;18310;55.586;12.286;2023-11-19T17:16:24;100353.13;;;10.90
34807;BMP280;18310;55.586;12.286;2023-11-19T17:19:27;100355.41;;;10.88
34807;BMP280;18310;55.586;12.286;2023-11-19T17:22:31;100355.31;;;10.84
34807;BMP280;18310;55.586;12.286;2023-11-19T17:25:36;100357.22;;;10.80
34807;BMP280;18310;55.586;12.286;2023-11-19T17:28:44;100359.16;;;10.79
34807;BMP280;18310;55.586;12.286;2023-11-19T17:31:47;100353.72;;;10.79
34807;BMP280;18310;55.586;12.286;2023-11-19T17:34:51;100360.31;;;10.78
34807;BMP280;18310;55.586;12.286;2023-11-19T17:37:55;100368.81;;;10.77